sensor_id;sensor_type;location;lat;lon;timestamp;temperature;humidity
12682;DHT22;6405;59.208;18.216;2024-03-06T00:02:04;-2.00;99.90
12682;DHT22;6405;59.208;18.216;2024-03-06T00:04:29;-2.20;99.90
12682;DHT22;6405;59.208;18.216;2024-03-06T00:06:55;-2.30;99.90
12682;DHT22;6405;59.208;18.216;2024-03-06T00:09:23;-2.30;99.90
12682;DHT22;6405;59.208;18.216;2024-03-06T00:11:49;-2.30;99.90
12682;DHT22;6405;59.208;18.216;2024-03-06T00:14:18;-2.40;99.90
12682;DHT22;6405;59.208;18.216;2024-03-06T00:16:45;-2.50;99.90
12682;DHT22;6405;59.208;18.216;2024-03-06T00:19:11;-2.50;99.90
12682;DHT22;6405;59.208;18.216;2024-03-06T00:21:36;-2.60;99.90
12682;DHT22;6405;59.208;18.216;2024-03-06T00:24:03;-2.60;99.90
12682;DHT22;6405;59.208;18.216;2024-03-06T00:26:29;-2.60;99.90
12682;DHT22;6405;59.208;18.216;2024-03-06T00:28:55;-2.70;99.90
12682;DHT22;6405;59.208;18.216;2024-03-06T00:31:21;-2.80;99.90
12682;DHT22;6405;59.208;18.216;2024-03-06T00:33:47;-2.80;99.90
12682;DHT22;6405;59.208;18.216;2024-03-06T00:36:13;-2.80;99.90
12682;DHT22;6405;59.208;18.216;2024-03-06T00:38:39;-2.80;99.90
12682;DHT22;6405;59.208;18.216;2024-03-06T00:41:05;-2.90;99.90
12682;DHT22;6405;59.208;18.216;2024-03-06T00:43:30;-2.90;99.90
12682;DHT22;6405;59.208;18.216;2024-03-06T00:45:56;-2.90;99.90
12682;DHT22;6405;59.208;18.216;2024-03-06T00:48:22;-3.00;99.90
12682;DHT22;6405;59.208;18.216;2024-03-06T00:50:48;-2.90;99.90
12682;DHT22;6405;59.208;18.216;2024-03-06T00:53:13;-2.80;99.90
12682;DHT22;6405;59.208;18.216;2024-03-06T00:55:39;-3.00;99.90
12682;DHT22;6405;59.208;18.216;2024-03-06T00:58:05;-3.00;99.90
12682;DHT22;6405;59.208;18.216;2024-03-06T01:00:32;-3.00;99.90
12682;DHT22;6405;59.208;18.216;2024-03-06T01:02:58;-3.10;99.90
12682;DHT22;6405;59.208;18.216;2024-03-06T01:05:24;-3.00;99.90
12682;DHT22;6405;59.208;18.216;2024-03-06T01:07:49;-3.00;99.90
12682;DHT22;6405;59.208;18.216;2024-03-06T01:10:15;-3.10;99.90
12682;DHT22;6405;59.208;18.216;2024-03-06T01:12:41;-3.00;99.90
12682;DHT22;6405;59.208;18.216;2024-03-06T01:15:11;-3.00;99.90
12682;DHT22;6405;59.208;18.216;2024-03-06T01:17:37;-3.00;99.90
12682;DHT22;6405;59.208;18.216;2024-03-06T01:20:03;-2.80;99.90
12682;DHT22;6405;59.208;18.216;2024-03-06T01:22:33;-3.00;99.90
12682;DHT22;6405;59.208;18.216;2024-03-06T01:24:59;-2.90;99.90
12682;DHT22;6405;59.208;18.216;2024-03-06T01:27:26;-2.90;99.90
12682;DHT22;6405;59.208;18.216;2024-03-06T01:29:52;-2.90;99.90
12682;DHT22;6405;59.208;18.216;2024-03-06T01:32:18;-2.90;99.90
12682;DHT22;6405;59.208;18.216;2024-03-06T01:34:43;-2.90;99.90
12682;DHT22;6405;59.208;18.216;2024-03-06T01:37:09;-2.80;99.90
12682;DHT22;6405;59.208;18.216;2024-03-06T01:39:35;-2.80;99.90
12682;DHT22;6405;59.208;18.216;2024-03-06T01:42:02;-2.70;99.90
12682;DHT22;6405;59.208;18.216;2024-03-06T01:44:29;-2.60;99.90
12682;DHT22;6405;59.208;18.216;2024-03-06T01:46:55;-2.50;99.90
12682;DHT22;6405;59.208;18.216;2024-03-06T01:49:21;-2.40;99.90
12682;DHT22;6405;59.208;18.216;2024-03-06T01:51:53;-2.40;99.90
12682;DHT22;6405;59.208;18.216;2024-03-06T01:54:19;-2.30;99.90
12682;DHT22;6405;59.208;18.216;2024-03-06T01:56:46;-2.20;99.90
12682;DHT22;6405;59.208;18.216;2024-03-06T01:59:13;-2.20;99.90
12682;DHT22;6405;59.208;18.216;2024-03-06T02:01:40;-2.10;99.90
12682;DHT22;6405;59.208;18.216;2024-03-06T02:04:07;-2.10;99.90
12682;DHT22;6405;59.208;18.216;2024-03-06T02:06:35;-2.00;99.90
12682;DHT22;6405;59.208;18.216;2024-03-06T02:09:01;-2.00;99.90
12682;DHT22;6405;59.208;18.216;2024-03-06T02:11:28;-2.00;99.90
12682;DHT22;6405;59.208;18.216;2024-03-06T02:13:55;-2.00;99.90
12682;DHT22;6405;59.208;18.216;2024-03-06T02:16:20;-1.90;99.90
12682;DHT22;6405;59.208;18.216;2024-03-06T02:18:56;-1.90;99.90
12682;DHT22;6405;59.208;18.216;2024-03-06T02:21:25;-1.90;99.90
12682;DHT22;6405;59.208;18.216;2024-03-06T02:23:51;-1.90;99.90
12682;DHT22;6405;59.208;18.216;2024-03-06T02:26:18;-1.90;99.90
12682;DHT22;6405;59.208;18.216;2024-03-06T02:28:47;-1.90;99.90
12682;DHT22;6405;59.208;18.216;2024-03-06T02:31:13;-1.90;99.90
12682;DHT22;6405;59.208;18.216;2024-03-06T02:33:39;-1.90;99.90
12682;DHT22;6405;59.208;18.216;2024-03-06T02:36:05;-1.80;99.90
12682;DHT22;6405;59.208;18.216;2024-03-06T02:38:31;-1.80;99.90
12682;DHT22;6405;59.208;18.216;2024-03-06T02:40:57;-1.80;99.90
12682;DHT22;6405;59.208;18.216;2024-03-06T02:43:22;-1.80;99.90
12682;DHT22;6405;59.208;18.216;2024-03-06T02:45:48;-1.80;99.90
12682;DHT22;6405;59.208;18.216;2024-03-06T02:48:14;-1.80;99.90
12682;DHT22;6405;59.208;18.216;2024-03-06T02:50:39;-1.80;99.90
12682;DHT22;6405;59.208;18.216;2024-03-06T02:53:05;-1.80;99.90
12682;DHT22;6405;59.208;18.216;2024-03-06T02:55:31;-1.80;99.90
12682;DHT22;6405;59.208;18.216;2024-03-06T02:57:56;-1.80;99.90
12682;DHT22;6405;59.208;18.216;2024-03-06T03:00:23;-1.90;99.90
12682;DHT22;6405;59.208;18.216;2024-03-06T03:02:48;-1.90;99.90
12682;DHT22;6405;59.208;18.216;2024-03-06T03:05:14;-1.90;99.90
12682;DHT22;6405;59.208;18.216;2024-03-06T03:07:40;-2.00;99.90
12682;DHT22;6405;59.208;18.216;2024-03-06T03:10:06;-2.00;99.90
12682;DHT22;6405;59.208;18.216;2024-03-06T03:12:32;-2.00;99.90
12682;DHT22;6405;59.208;18.216;2024-03-06T03:14:57;-2.00;99.90
12682;DHT22;6405;59.208;18.216;2024-03-06T03:17:23;-2.00;99.90
12682;DHT22;6405;59.208;18.216;2024-03-06T03:19:49;-2.00;99.90
12682;DHT22;6405;59.208;18.216;2024-03-06T03:22:15;-2.00;99.90
12682;DHT22;6405;59.208;18.216;2024-03-06T03:24:44;-2.10;99.90
12682;DHT22;6405;59.208;18.216;2024-03-06T03:27:09;-2.10;99.90
12682;DHT22;6405;59.208;18.216;2024-03-06T03:29:35;-2.10;99.90
12682;DHT22;6405;59.208;18.216;2024-03-06T03:32:01;-2.10;99.90
12682;DHT22;6405;59.208;18.216;2024-03-06T03:34:26;-2.20;99.90
12682;DHT22;6405;59.208;18.216;2024-03-06T03:36:52;-2.20;99.90
12682;DHT22;6405;59.208;18.216;2024-03-06T03:39:18;-2.30;99.90
12682;DHT22;6405;59.208;18.216;2024-03-06T03:41:47;-2.30;99.90
12682;DHT22;6405;59.208;18.216;2024-03-06T03:44:19;-2.40;99.90
12682;DHT22;6405;59.208;18.216;2024-03-06T03:46:45;-2.40;99.90
12682;DHT22;6405;59.208;18.216;2024-03-06T03:49:11;-2.40;99.90
12682;DHT22;6405;59.208;18.216;2024-03-06T03:51:38;-2.50;99.90
12682;DHT22;6405;59.208;18.216;2024-03-06T03:54:04;-2.60;99.90
12682;DHT22;6405;59.208;18.216;2024-03-06T03:56:31;-2.60;99.90
12682;DHT22;6405;59.208;18.216;2024-03-06T03:58:57;-2.60;99.90
12682;DHT22;6405;59.208;18.216;2024-03-06T04:01:24;-2.70;99.90
12682;DHT22;6405;59.208;18.216;2024-03-06T04:03:50;-2.70;99.90
12682;DHT22;6405;59.208;18.216;2024-03-06T04:06:17;-2.80;99.90
12682;DHT22;6405;59.208;18.216;2024-03-06T04:08:43;-2.80;99.90
12682;DHT22;6405;59.208;18.216;2024-03-06T04:11:08;-2.80;99.90
12682;DHT22;6405;59.208;18.216;2024-03-06T04:13:38;-2.80;99.90
12682;DHT22;6405;59.208;18.216;2024-03-06T04:16:04;-2.80;99.90
12682;DHT22;6405;59.208;18.216;2024-03-06T04:18:31;-2.90;99.90
12682;DHT22;6405;59.208;18.216;2024-03-06T04:21:06;-2.90;99.90
12682;DHT22;6405;59.208;18.216;2024-03-06T04:23:33;-2.80;99.90
12682;DHT22;6405;59.208;18.216;2024-03-06T04:25:59;-2.90;99.90
12682;DHT22;6405;59.208;18.216;2024-03-06T04:28:25;-2.90;99.90
12682;DHT22;6405;59.208;18.216;2024-03-06T04:30:51;-2.90;99.90
12682;DHT22;6405;59.208;18.216;2024-03-06T04:33:17;-2.90;99.90
12682;DHT22;6405;59.208;18.216;2024-03-06T04:35:42;-2.90;99.90
12682;DHT22;6405;59.208;18.216;2024-03-06T04:38:08;-2.80;99.90
12682;DHT22;6405;59.208;18.216;2024-03-06T04:40:34;-2.80;99.90
12682;DHT22;6405;59.208;18.216;2024-03-06T04:43:03;-2.80;99.90
12682;DHT22;6405;59.208;18.216;2024-03-06T04:45:28;-2.80;99.90
12682;DHT22;6405;59.208;18.216;2024-03-06T04:47:55;-2.80;99.90
12682;DHT22;6405;59.208;18.216;2024-03-06T04:50:21;-2.80;99.90
12682;DHT22;6405;59.208;18.216;2024-03-06T04:52:46;-2.70;99.90
12682;DHT22;6405;59.208;18.216;2024-03-06T04:55:12;-2.70;99.90
12682;DHT22;6405;59.208;18.216;2024-03-06T04:57:43;-2.60;99.90
12682;DHT22;6405;59.208;18.216;2024-03-06T05:00:10;-2.70;99.90
12682;DHT22;6405;59.208;18.216;2024-03-06T05:02:37;-2.60;99.90
12682;DHT22;6405;59.208;18.216;2024-03-06T05:05:04;-2.60;99.90
12682;DHT22;6405;59.208;18.216;2024-03-06T05:07:32;-2.50;99.90
12682;DHT22;6405;59.208;18.216;2024-03-06T05:09:58;-2.30;99.90
12682;DHT22;6405;59.208;18.216;2024-03-06T05:12:25;-2.50;99.90
12682;DHT22;6405;59.208;18.216;2024-03-06T05:14:51;-2.40;99.90
12682;DHT22;6405;59.208;18.216;2024-03-06T05:17:17;-2.40;99.90
12682;DHT22;6405;59.208;18.216;2024-03-06T05:19:47;-2.40;99.90
12682;DHT22;6405;59.208;18.216;2024-03-06T05:22:13;-2.30;99.90
12682;DHT22;6405;59.208;18.216;2024-03-06T05:24:40;-2.30;99.90
12682;DHT22;6405;59.208;18.216;2024-03-06T05:27:06;-2.20;99.90
12682;DHT22;6405;59.208;18.216;2024-03-06T05:29:32;-2.20;99.90
12682;DHT22;6405;59.208;18.216;2024-03-06T05:31:58;-2.10;99.90
12682;DHT22;6405;59.208;18.216;2024-03-06T05:34:24;-2.10;99.90
12682;DHT22;6405;59.208;18.216;2024-03-06T05:36:50;-2.00;99.90
12682;DHT22;6405;59.208;18.216;2024-03-06T05:39:16;-1.80;99.90
12682;DHT22;6405;59.208;18.216;2024-03-06T05:41:43;-1.90;99.90
12682;DHT22;6405;59.208;18.216;2024-03-06T05:44:09;-1.90;99.90
12682;DHT22;6405;59.208;18.216;2024-03-06T05:46:35;-1.80;99.90
12682;DHT22;6405;59.208;18.216;2024-03-06T05:49:02;-1.80;99.90
12682;DHT22;6405;59.208;18.216;2024-03-06T05:51:28;-1.70;99.90
12682;DHT22;6405;59.208;18.216;2024-03-06T05:53:54;-1.70;99.90
12682;DHT22;6405;59.208;18.216;2024-03-06T05:56:20;-1.60;99.90
12682;DHT22;6405;59.208;18.216;2024-03-06T05:58:46;-1.40;99.90
12682;DHT22;6405;59.208;18.216;2024-03-06T06:01:17;-1.40;99.90
12682;DHT22;6405;59.208;18.216;2024-03-06T06:03:47;-1.50;99.90
12682;DHT22;6405;59.208;18.216;2024-03-06T06:06:17;-1.50;99.90
12682;DHT22;6405;59.208;18.216;2024-03-06T06:08:43;-1.50;99.90
12682;DHT22;6405;59.208;18.216;2024-03-06T06:11:10;-1.40;99.90
12682;DHT22;6405;59.208;18.216;2024-03-06T06:13:36;-1.40;99.90
12682;DHT22;6405;59.208;18.216;2024-03-06T06:16:02;-1.30;99.90
12682;DHT22;6405;59.208;18.216;2024-03-06T06:18:30;-1.30;99.90
12682;DHT22;6405;59.208;18.216;2024-03-06T06:20:58;-1.20;99.90
12682;DHT22;6405;59.208;18.216;2024-03-06T06:23:24;-1.10;99.90
12682;DHT22;6405;59.208;18.216;2024-03-06T06:25:50;-1.10;99.90
12682;DHT22;6405;59.208;18.216;2024-03-06T06:28:15;-1.00;99.90
12682;DHT22;6405;59.208;18.216;2024-03-06T06:30:41;-1.00;99.90
12682;DHT22;6405;59.208;18.216;2024-03-06T06:33:07;-1.00;99.90
12682;DHT22;6405;59.208;18.216;2024-03-06T06:35:34;-0.90;99.90
12682;DHT22;6405;59.208;18.216;2024-03-06T06:38:03;-0.80;99.90
12682;DHT22;6405;59.208;18.216;2024-03-06T06:40:30;-0.70;99.90
12682;DHT22;6405;59.208;18.216;2024-03-06T06:42:56;-0.70;99.90
12682;DHT22;6405;59.208;18.216;2024-03-06T06:45:22;-0.60;99.90
12682;DHT22;6405;59.208;18.216;2024-03-06T06:47:49;-0.60;99.90
12682;DHT22;6405;59.208;18.216;2024-03-06T06:50:15;-0.50;99.90
12682;DHT22;6405;59.208;18.216;2024-03-06T06:52:41;-0.50;99.90
12682;DHT22;6405;59.208;18.216;2024-03-06T06:55:08;-0.40;99.90
12682;DHT22;6405;59.208;18.216;2024-03-06T06:57:37;-0.40;99.90
12682;DHT22;6405;59.208;18.216;2024-03-06T07:00:04;-0.30;99.90
12682;DHT22;6405;59.208;18.216;2024-03-06T07:02:41;-0.30;99.90
12682;DHT22;6405;59.208;18.216;2024-03-06T07:05:08;-0.20;99.90
12682;DHT22;6405;59.208;18.216;2024-03-06T07:07:35;-0.20;99.90
12682;DHT22;6405;59.208;18.216;2024-03-06T07:10:07;-0.10;99.90
12682;DHT22;6405;59.208;18.216;2024-03-06T07:12:35;-0.10;99.90
12682;DHT22;6405;59.208;18.216;2024-03-06T07:15:01;0.00;99.90
12682;DHT22;6405;59.208;18.216;2024-03-06T07:17:28;0.00;99.90
12682;DHT22;6405;59.208;18.216;2024-03-06T07:19:54;0.10;99.90
12682;DHT22;6405;59.208;18.216;2024-03-06T07:22:19;0.10;99.90
12682;DHT22;6405;59.208;18.216;2024-03-06T07:24:45;0.10;99.90
12682;DHT22;6405;59.208;18.216;2024-03-06T07:27:11;0.10;99.90
12682;DHT22;6405;59.208;18.216;2024-03-06T07:29:37;0.20;99.90
12682;DHT22;6405;59.208;18.216;2024-03-06T07:32:03;0.30;99.90
12682;DHT22;6405;59.208;18.216;2024-03-06T07:34:30;0.30;99.90
12682;DHT22;6405;59.208;18.216;2024-03-06T07:36:56;0.30;99.90
12682;DHT22;6405;59.208;18.216;2024-03-06T07:39:22;0.40;99.90
12682;DHT22;6405;59.208;18.216;2024-03-06T07:41:49;0.30;99.90
12682;DHT22;6405;59.208;18.216;2024-03-06T07:44:14;0.40;99.90
12682;DHT22;6405;59.208;18.216;2024-03-06T07:46:40;0.40;99.90
12682;DHT22;6405;59.208;18.216;2024-03-06T07:49:06;0.40;99.90
12682;DHT22;6405;59.208;18.216;2024-03-06T07:51:32;0.50;99.90
12682;DHT22;6405;59.208;18.216;2024-03-06T07:53:58;0.60;99.90
12682;DHT22;6405;59.208;18.216;2024-03-06T07:56:25;0.50;99.90
12682;DHT22;6405;59.208;18.216;2024-03-06T07:58:51;0.60;99.90
12682;DHT22;6405;59.208;18.216;2024-03-06T08:01:17;0.60;99.90
12682;DHT22;6405;59.208;18.216;2024-03-06T08:03:43;0.60;99.90
12682;DHT22;6405;59.208;18.216;2024-03-06T08:06:10;0.60;99.90
12682;DHT22;6405;59.208;18.216;2024-03-06T08:08:36;0.70;99.90
12682;DHT22;6405;59.208;18.216;2024-03-06T08:11:02;0.70;99.90
12682;DHT22;6405;59.208;18.216;2024-03-06T08:13:28;0.70;99.90
12682;DHT22;6405;59.208;18.216;2024-03-06T08:15:54;1.00;99.90
12682;DHT22;6405;59.208;18.216;2024-03-06T08:18:20;1.00;99.90
12682;DHT22;6405;59.208;18.216;2024-03-06T08:20:46;1.00;99.90
12682;DHT22;6405;59.208;18.216;2024-03-06T08:23:11;0.90;99.90
12682;DHT22;6405;59.208;18.216;2024-03-06T08:25:37;1.00;99.90
12682;DHT22;6405;59.208;18.216;2024-03-06T08:28:03;1.10;99.90
12682;DHT22;6405;59.208;18.216;2024-03-06T08:30:29;1.20;99.90
12682;DHT22;6405;59.208;18.216;2024-03-06T08:32:58;1.20;99.90
12682;DHT22;6405;59.208;18.216;2024-03-06T08:35:24;1.30;99.90
12682;DHT22;6405;59.208;18.216;2024-03-06T08:37:50;1.40;99.90
12682;DHT22;6405;59.208;18.216;2024-03-06T08:40:17;1.30;99.90
12682;DHT22;6405;59.208;18.216;2024-03-06T08:42:46;1.30;99.90
12682;DHT22;6405;59.208;18.216;2024-03-06T08:45:16;1.30;99.90
12682;DHT22;6405;59.208;18.216;2024-03-06T08:47:43;1.20;99.90
12682;DHT22;6405;59.208;18.216;2024-03-06T08:50:09;1.30;99.90
12682;DHT22;6405;59.208;18.216;2024-03-06T08:52:36;1.10;99.90
12682;DHT22;6405;59.208;18.216;2024-03-06T08:55:02;1.10;99.90
12682;DHT22;6405;59.208;18.216;2024-03-06T08:57:37;1.20;99.90
12682;DHT22;6405;59.208;18.216;2024-03-06T09:00:04;1.20;99.90
12682;DHT22;6405;59.208;18.216;2024-03-06T09:02:34;1.10;99.90
12682;DHT22;6405;59.208;18.216;2024-03-06T09:04:59;1.00;99.90
12682;DHT22;6405;59.208;18.216;2024-03-06T09:07:25;1.10;99.90
12682;DHT22;6405;59.208;18.216;2024-03-06T09:09:51;1.10;99.90
12682;DHT22;6405;59.208;18.216;2024-03-06T09:12:17;1.10;99.90
12682;DHT22;6405;59.208;18.216;2024-03-06T09:14:43;1.20;99.90
12682;DHT22;6405;59.208;18.216;2024-03-06T09:17:10;1.40;99.90
12682;DHT22;6405;59.208;18.216;2024-03-06T09:19:36;1.60;99.90
12682;DHT22;6405;59.208;18.216;2024-03-06T09:22:02;1.70;99.90
12682;DHT22;6405;59.208;18.216;2024-03-06T09:24:28;1.70;99.90
12682;DHT22;6405;59.208;18.216;2024-03-06T09:26:54;1.80;99.90
12682;DHT22;6405;59.208;18.216;2024-03-06T09:29:20;1.80;99.90
12682;DHT22;6405;59.208;18.216;2024-03-06T09:31:47;1.70;99.90
12682;DHT22;6405;59.208;18.216;2024-03-06T09:34:13;1.70;99.90
12682;DHT22;6405;59.208;18.216;2024-03-06T09:36:49;1.70;99.90
12682;DHT22;6405;59.208;18.216;2024-03-06T09:39:16;1.70;99.90
12682;DHT22;6405;59.208;18.216;2024-03-06T09:41:46;1.60;99.90
12682;DHT22;6405;59.208;18.216;2024-03-06T09:44:13;1.60;99.90
12682;DHT22;6405;59.208;18.216;2024-03-06T09:46:45;1.70;99.90
12682;DHT22;6405;59.208;18.216;2024-03-06T09:49:13;1.70;99.90
12682;DHT22;6405;59.208;18.216;2024-03-06T09:51:47;1.60;99.90
12682;DHT22;6405;59.208;18.216;2024-03-06T09:54:14;1.50;99.90
12682;DHT22;6405;59.208;18.216;2024-03-06T09:56:47;1.50;99.90
12682;DHT22;6405;59.208;18.216;2024-03-06T09:59:13;1.40;99.90
12682;DHT22;6405;59.208;18.216;2024-03-06T10:01:56;1.50;99.90
12682;DHT22;6405;59.208;18.216;2024-03-06T10:04:27;1.50;99.90
12682;DHT22;6405;59.208;18.216;2024-03-06T10:06:57;1.60;99.90
12682;DHT22;6405;59.208;18.216;2024-03-06T10:09:23;1.60;99.90
12682;DHT22;6405;59.208;18.216;2024-03-06T10:11:49;1.60;99.90
12682;DHT22;6405;59.208;18.216;2024-03-06T10:14:18;1.60;99.90
12682;DHT22;6405;59.208;18.216;2024-03-06T10:16:55;1.60;99.90
12682;DHT22;6405;59.208;18.216;2024-03-06T10:19:22;1.60;99.90
12682;DHT22;6405;59.208;18.216;2024-03-06T10:21:48;1.60;99.90
12682;DHT22;6405;59.208;18.216;2024-03-06T10:24:25;1.70;99.90
12682;DHT22;6405;59.208;18.216;2024-03-06T10:26:52;1.80;99.90
12682;DHT22;6405;59.208;18.216;2024-03-06T10:29:20;2.00;99.90
12682;DHT22;6405;59.208;18.216;2024-03-06T10:31:52;1.90;99.90
12682;DHT22;6405;59.208;18.216;2024-03-06T10:34:17;1.90;99.90
12682;DHT22;6405;59.208;18.216;2024-03-06T10:36:43;2.00;99.90
12682;DHT22;6405;59.208;18.216;2024-03-06T10:39:12;2.10;99.90
12682;DHT22;6405;59.208;18.216;2024-03-06T10:41:40;2.10;99.90
12682;DHT22;6405;59.208;18.216;2024-03-06T10:44:12;2.10;99.90
12682;DHT22;6405;59.208;18.216;2024-03-06T10:46:44;2.20;99.90
12682;DHT22;6405;59.208;18.216;2024-03-06T10:49:13;2.20;99.90
12682;DHT22;6405;59.208;18.216;2024-03-06T10:51:44;2.20;99.90
12682;DHT22;6405;59.208;18.216;2024-03-06T10:54:11;2.20;99.90
12682;DHT22;6405;59.208;18.216;2024-03-06T10:56:40;2.30;99.90
12682;DHT22;6405;59.208;18.216;2024-03-06T10:59:11;2.40;99.90
12682;DHT22;6405;59.208;18.216;2024-03-06T11:01:39;2.40;99.90
12682;DHT22;6405;59.208;18.216;2024-03-06T11:04:05;2.40;99.90
12682;DHT22;6405;59.208;18.216;2024-03-06T11:06:32;2.40;99.90
12682;DHT22;6405;59.208;18.216;2024-03-06T11:08:59;2.50;99.90
12682;DHT22;6405;59.208;18.216;2024-03-06T11:11:25;2.50;99.90
12682;DHT22;6405;59.208;18.216;2024-03-06T11:13:54;2.60;99.90
12682;DHT22;6405;59.208;18.216;2024-03-06T11:16:30;2.60;99.90
12682;DHT22;6405;59.208;18.216;2024-03-06T11:19:06;2.60;99.90
12682;DHT22;6405;59.208;18.216;2024-03-06T11:21:44;2.80;99.90
12682;DHT22;6405;59.208;18.216;2024-03-06T11:24:31;2.70;99.90
12682;DHT22;6405;59.208;18.216;2024-03-06T11:27:04;2.60;99.90
12682;DHT22;6405;59.208;18.216;2024-03-06T11:30:03;2.80;99.90
12682;DHT22;6405;59.208;18.216;2024-03-06T11:32:30;2.90;99.90
12682;DHT22;6405;59.208;18.216;2024-03-06T11:34:55;3.00;99.90
12682;DHT22;6405;59.208;18.216;2024-03-06T11:37:21;3.10;99.90
12682;DHT22;6405;59.208;18.216;2024-03-06T11:39:48;3.10;99.90
12682;DHT22;6405;59.208;18.216;2024-03-06T11:42:14;3.20;99.90
12682;DHT22;6405;59.208;18.216;2024-03-06T11:44:53;3.30;99.90
12682;DHT22;6405;59.208;18.216;2024-03-06T11:47:22;3.40;99.90
12682;DHT22;6405;59.208;18.216;2024-03-06T11:49:49;3.40;99.90
12682;DHT22;6405;59.208;18.216;2024-03-06T11:52:15;3.40;99.90
12682;DHT22;6405;59.208;18.216;2024-03-06T11:54:41;3.40;99.90
12682;DHT22;6405;59.208;18.216;2024-03-06T11:57:06;3.40;99.90
12682;DHT22;6405;59.208;18.216;2024-03-06T11:59:34;3.50;99.90
12682;DHT22;6405;59.208;18.216;2024-03-06T12:02:02;3.60;99.90
12682;DHT22;6405;59.208;18.216;2024-03-06T12:04:30;3.60;99.90
12682;DHT22;6405;59.208;18.216;2024-03-06T12:06:57;3.70;99.90
12682;DHT22;6405;59.208;18.216;2024-03-06T12:09:36;3.70;99.90
12682;DHT22;6405;59.208;18.216;2024-03-06T12:12:02;3.50;99.90
12682;DHT22;6405;59.208;18.216;2024-03-06T12:14:29;3.60;99.90
12682;DHT22;6405;59.208;18.216;2024-03-06T12:16:59;3.70;99.90
12682;DHT22;6405;59.208;18.216;2024-03-06T12:19:28;3.80;99.90
12682;DHT22;6405;59.208;18.216;2024-03-06T12:22:00;3.90;99.90
12682;DHT22;6405;59.208;18.216;2024-03-06T12:24:26;3.80;99.90
12682;DHT22;6405;59.208;18.216;2024-03-06T12:27:05;4.20;99.90
12682;DHT22;6405;59.208;18.216;2024-03-06T12:29:32;4.00;99.90
12682;DHT22;6405;59.208;18.216;2024-03-06T12:31:59;4.00;99.90
12682;DHT22;6405;59.208;18.216;2024-03-06T12:34:25;4.00;99.90
12682;DHT22;6405;59.208;18.216;2024-03-06T12:36:50;4.20;99.90
12682;DHT22;6405;59.208;18.216;2024-03-06T12:39:17;4.00;99.90
12682;DHT22;6405;59.208;18.216;2024-03-06T12:41:46;4.00;99.90
12682;DHT22;6405;59.208;18.216;2024-03-06T12:44:13;4.00;99.90
12682;DHT22;6405;59.208;18.216;2024-03-06T12:46:39;4.10;99.90
12682;DHT22;6405;59.208;18.216;2024-03-06T12:49:04;4.10;99.90
12682;DHT22;6405;59.208;18.216;2024-03-06T12:51:30;4.20;99.90
12682;DHT22;6405;59.208;18.216;2024-03-06T12:53:58;4.10;99.90
12682;DHT22;6405;59.208;18.216;2024-03-06T12:56:23;4.10;99.90
12682;DHT22;6405;59.208;18.216;2024-03-06T12:58:51;4.20;99.90
12682;DHT22;6405;59.208;18.216;2024-03-06T13:01:17;4.20;99.90
12682;DHT22;6405;59.208;18.216;2024-03-06T13:03:43;4.10;99.90
12682;DHT22;6405;59.208;18.216;2024-03-06T13:06:08;4.20;99.90
12682;DHT22;6405;59.208;18.216;2024-03-06T13:08:35;4.20;99.90
12682;DHT22;6405;59.208;18.216;2024-03-06T13:11:01;4.20;99.90
12682;DHT22;6405;59.208;18.216;2024-03-06T13:13:28;4.10;99.90
12682;DHT22;6405;59.208;18.216;2024-03-06T13:15:56;4.10;99.90
12682;DHT22;6405;59.208;18.216;2024-03-06T13:18:21;4.10;99.90
12682;DHT22;6405;59.208;18.216;2024-03-06T13:20:47;4.10;99.90
12682;DHT22;6405;59.208;18.216;2024-03-06T13:23:13;4.10;99.90
12682;DHT22;6405;59.208;18.216;2024-03-06T13:25:39;4.10;99.90
12682;DHT22;6405;59.208;18.216;2024-03-06T13:28:05;4.20;99.90
12682;DHT22;6405;59.208;18.216;2024-03-06T13:30:31;4.10;99.90
12682;DHT22;6405;59.208;18.216;2024-03-06T13:32:58;4.10;99.90
12682;DHT22;6405;59.208;18.216;2024-03-06T13:35:24;4.10;99.90
12682;DHT22;6405;59.208;18.216;2024-03-06T13:37:50;4.10;99.90
12682;DHT22;6405;59.208;18.216;2024-03-06T13:40:16;4.10;99.90
12682;DHT22;6405;59.208;18.216;2024-03-06T13:42:42;4.10;99.90
12682;DHT22;6405;59.208;18.216;2024-03-06T13:45:09;4.00;99.90
12682;DHT22;6405;59.208;18.216;2024-03-06T13:47:39;4.10;99.90
12682;DHT22;6405;59.208;18.216;2024-03-06T13:50:11;4.10;99.90
12682;DHT22;6405;59.208;18.216;2024-03-06T13:52:38;4.10;99.90
12682;DHT22;6405;59.208;18.216;2024-03-06T13:55:04;4.10;99.90
12682;DHT22;6405;59.208;18.216;2024-03-06T13:57:33;4.10;99.90
12682;DHT22;6405;59.208;18.216;2024-03-06T14:00:07;4.00;99.90
12682;DHT22;6405;59.208;18.216;2024-03-06T14:02:46;4.00;99.90
12682;DHT22;6405;59.208;18.216;2024-03-06T14:05:12;4.00;99.90
12682;DHT22;6405;59.208;18.216;2024-03-06T14:07:38;4.00;99.90
12682;DHT22;6405;59.208;18.216;2024-03-06T14:10:05;4.00;99.90
12682;DHT22;6405;59.208;18.216;2024-03-06T14:12:33;4.00;99.90
12682;DHT22;6405;59.208;18.216;2024-03-06T14:14:58;4.00;99.90
12682;DHT22;6405;59.208;18.216;2024-03-06T14:17:24;4.00;99.90
12682;DHT22;6405;59.208;18.216;2024-03-06T14:19:50;3.90;99.90
12682;DHT22;6405;59.208;18.216;2024-03-06T14:22:15;4.00;99.90
12682;DHT22;6405;59.208;18.216;2024-03-06T14:24:42;3.80;99.90
12682;DHT22;6405;59.208;18.216;2024-03-06T14:27:07;3.80;99.90
12682;DHT22;6405;59.208;18.216;2024-03-06T14:29:34;3.70;99.90
12682;DHT22;6405;59.208;18.216;2024-03-06T14:31:59;3.70;99.90
12682;DHT22;6405;59.208;18.216;2024-03-06T14:34:25;3.60;99.90
12682;DHT22;6405;59.208;18.216;2024-03-06T14:36:51;3.60;99.90
12682;DHT22;6405;59.208;18.216;2024-03-06T14:39:21;3.50;99.90
12682;DHT22;6405;59.208;18.216;2024-03-06T14:41:49;3.50;99.90
12682;DHT22;6405;59.208;18.216;2024-03-06T14:44:14;3.30;99.90
12682;DHT22;6405;59.208;18.216;2024-03-06T14:46:41;3.40;99.90
12682;DHT22;6405;59.208;18.216;2024-03-06T14:49:08;3.30;99.90
12682;DHT22;6405;59.208;18.216;2024-03-06T14:51:33;3.30;99.90
12682;DHT22;6405;59.208;18.216;2024-03-06T14:53:59;3.30;99.90
12682;DHT22;6405;59.208;18.216;2024-03-06T14:56:25;3.30;99.90
12682;DHT22;6405;59.208;18.216;2024-03-06T14:58:51;3.20;99.90
12682;DHT22;6405;59.208;18.216;2024-03-06T15:01:17;3.20;99.90
12682;DHT22;6405;59.208;18.216;2024-03-06T15:03:43;3.10;99.90
12682;DHT22;6405;59.208;18.216;2024-03-06T15:06:11;3.00;99.90
12682;DHT22;6405;59.208;18.216;2024-03-06T15:08:37;2.90;99.90
12682;DHT22;6405;59.208;18.216;2024-03-06T15:11:03;2.90;99.90
12682;DHT22;6405;59.208;18.216;2024-03-06T15:13:29;2.80;99.90
12682;DHT22;6405;59.208;18.216;2024-03-06T15:15:54;2.70;99.90
12682;DHT22;6405;59.208;18.216;2024-03-06T15:18:21;2.60;99.90
12682;DHT22;6405;59.208;18.216;2024-03-06T15:20:46;2.50;99.90
12682;DHT22;6405;59.208;18.216;2024-03-06T15:23:12;2.50;99.90
12682;DHT22;6405;59.208;18.216;2024-03-06T15:25:38;2.40;99.90
12682;DHT22;6405;59.208;18.216;2024-03-06T15:28:04;2.30;99.90
12682;DHT22;6405;59.208;18.216;2024-03-06T15:30:29;2.20;99.90
12682;DHT22;6405;59.208;18.216;2024-03-06T15:32:57;2.20;99.90
12682;DHT22;6405;59.208;18.216;2024-03-06T15:35:24;2.10;99.90
12682;DHT22;6405;59.208;18.216;2024-03-06T15:37:50;2.00;99.90
12682;DHT22;6405;59.208;18.216;2024-03-06T15:40:16;1.90;99.90